»·PEaware :: N147AT O46-KLMT

N147AT :: O46-KLMT

FLIGHT INFORMATION

Flight Status: Arrived
Operator: Privately registered:
United States
More flights under this callsign
Pilot: Anonymous 18613 (18613)
Aircraft: CESSNA 172 SKYHAWK
(C172)
More flights by this aircraft type
Origin: O46 Weed
United States
Destination: KLMT Klamath Falls Intl
United States
More flights between these airports :: More routes between these airports
Route:
File this flight plan on PilotEdge
Remarks: VFR
Altitude:
(Current/Filed)
5,500ft
Speed:
(Current/Filed)
115kts
Departed: 16-Apr-18 12:58 PM
Arrived: 16-Apr-18 01:38 PM
Distance/Time
Traveled:
52nm/0:40
Distance/Time
To Go:
Arrived

Flight Plot

Page will automatically refresh every two minutes.

Flight plan parsing failed; only flown route is shown


Map Options




Map Legend


Flown Route
Filed Route
Departure Airport
Arrival Airport
Navaid (VOR, NDB)
Fix

Horizontal Profiles

Position Reports

Time Latitude Longitude Heading Altitude Ground
Speed
16-Apr-18 12:46 41.476322 -122.453415 247 2941ft 0kts
16-Apr-18 12:47 41.476322 -122.453415 247 2941ft 0kts
16-Apr-18 12:48 41.476322 -122.453415 247 2941ft 0kts
16-Apr-18 12:49 41.476322 -122.453415 247 2941ft 0kts
16-Apr-18 12:50 41.476322 -122.453415 246 2941ft 0kts
16-Apr-18 12:51 41.476322 -122.453415 246 2941ft 0kts
16-Apr-18 12:52 41.476322 -122.453415 246 2941ft 0kts
16-Apr-18 12:53 41.476322 -122.453415 246 2941ft 0kts
16-Apr-18 12:54 41.476322 -122.453415 246 2941ft 0kts
16-Apr-18 12:55 41.475637 -122.452423 159 2941ft 16kts
16-Apr-18 12:56 41.474348 -122.451658 81 2941ft 0kts
16-Apr-18 12:57 41.481976 -122.455257 334 3063ft 84kts
16-Apr-18 12:58 41.507107 -122.466150 349 3900ft 99kts
16-Apr-18 12:59 41.527935 -122.442201 45 4749ft 103kts
16-Apr-18 13:00 41.550293 -122.415096 51 5298ft 122kts
16-Apr-18 13:01 41.571475 -122.374745 54 5285ft 136kts
16-Apr-18 13:02 41.592832 -122.333807 54 5461ft 125kts
16-Apr-18 13:03 41.610124 -122.299778 57 6344ft 102kts
16-Apr-18 13:04 41.623814 -122.268878 57 7229ft 92kts
16-Apr-18 13:05 41.638032 -122.236260 58 7631ft 126kts
16-Apr-18 13:06 41.656829 -122.193425 58 7612ft 135kts
16-Apr-18 13:07 41.680452 -122.159161 24 7612ft 122kts
16-Apr-18 13:08 41.711248 -122.140450 17 7610ft 121kts
16-Apr-18 13:09 41.742581 -122.124185 16 7606ft 121kts
16-Apr-18 13:10 41.773898 -122.107967 16 7601ft 120kts
16-Apr-18 13:11 41.805451 -122.091660 16 7597ft 123kts
16-Apr-18 13:12 41.832937 -122.063691 40 7591ft 125kts
16-Apr-18 13:13 41.858625 -122.032999 37 7156ft 130kts
16-Apr-18 13:14 41.886402 -122.003021 35 6157ft 128kts
16-Apr-18 13:15 41.912226 -121.976641 33 5964ft 113kts
16-Apr-18 13:16 41.938102 -121.950876 32 5958ft 117kts
16-Apr-18 13:17 41.964292 -121.924957 32 5952ft 117kts
16-Apr-18 13:18 41.990628 -121.899009 31 5950ft 117kts
16-Apr-18 13:19 41.991196 -121.859437 111 6049ft 116kts
16-Apr-18 13:20 41.987856 -121.817198 62 6146ft 119kts
16-Apr-18 13:21 42.011164 -121.788011 32 6275ft 113kts
16-Apr-18 13:22 42.035093 -121.759497 41 6032ft 114kts
16-Apr-18 13:23 42.053630 -121.728636 67 5910ft 102kts
16-Apr-18 13:24 42.061740 -121.691654 77 5981ft 108kts
16-Apr-18 13:25 42.064497 -121.651196 125 5987ft 112kts
16-Apr-18 13:26 42.043230 -121.656408 265 6008ft 93kts
16-Apr-18 13:27 42.063567 -121.670489 30 6019ft 113kts
16-Apr-18 13:28 42.059924 -121.635378 170 5945ft 117kts
16-Apr-18 13:29 42.048703 -121.660750 318 5775ft 114kts
16-Apr-18 13:30 42.074101 -121.645512 77 5809ft 123kts
16-Apr-18 13:31 42.054295 -121.638527 253 5694ft 104kts
16-Apr-18 13:32 42.075143 -121.660726 332 5631ft 110kts
16-Apr-18 13:33 42.102782 -121.673056 338 5313ft 91kts
16-Apr-18 13:34 42.124657 -121.680637 336 4897ft 78kts
16-Apr-18 13:35 42.145441 -121.688149 333 4693ft 75kts
16-Apr-18 13:36 42.156053 -121.709591 269 4304ft 69kts
16-Apr-18 13:37 42.156195 -121.731797 270 4099ft 27kts
16-Apr-18 13:38 42.157634 -121.738000 269 4099ft 19kts
16-Apr-18 13:39 42.159758 -121.742147 342 4099ft 19kts
16-Apr-18 13:40 42.162304 -121.743362 87 4099ft 0kts
16-Apr-18 13:41 42.162304 -121.743362 87 4099ft 0kts
16-Apr-18 13:42 42.162304 -121.743362 87 4099ft 0kts

Navigation Log

Ident Type
Flight plan parsing failed, navigation log unavailable